Time;durP1;ratioP1;P1;durP2;ratioP2;P2;SDS_P1;SDS_P2;PMS_P1;PMS_P2;Temp;Humidity;BMP_temperature;BMP_pressure;BME280_temperature;BME280_humidity;BME280_pressure;Samples;Min_cycle;Max_cycle;Signal;HPM_P1;HPM_P2
2021/12/18 00:05:11;;;;;;;29.38;12.32;;;7.40;99.90;;;;;;12436198;28;20053;-88
2021/12/18 00:11:14;;;;;;;27.85;11.15;;;7.50;99.90;;;;;;12423841;28;20057;-88
2021/12/18 00:17:16;;;;;;;25.20;10.52;;;7.40;99.90;;;;;;12432950;28;20058;-89
2021/12/18 00:23:18;;;;;;;49.67;12.15;;;7.60;99.90;;;;;;12445323;28;20140;-88
2021/12/18 00:29:20;;;;;;;36.55;12.73;;;7.50;99.90;;;;;;12446296;28;20053;-87
2021/12/18 00:35:22;;;;;;;108.45;14.95;;;7.40;99.90;;;;;;12437433;28;20045;-87
2021/12/18 00:41:47;;;;;;;68.63;14.88;;;7.50;99.90;;;;;;12433937;28;20470;-88
2021/12/18 00:47:48;;;;;;;27.80;11.13;;;7.50;99.90;;;;;;12424088;28;20517;-88
2021/12/18 00:53:51;;;;;;;24.58;9.13;;;7.40;99.90;;;;;;12435181;28;20053;-87
2021/12/18 00:59:59;;;;;;;25.67;9.98;;;7.40;99.90;;;;;;12426264;28;20073;-88
2021/12/18 01:06:01;;;;;;;16.55;6.68;;;7.40;99.90;;;;;;12427769;28;20852;-89
2021/12/18 01:12:06;;;;;;;13.23;5.15;;;7.40;99.90;;;;;;12432280;28;20099;-88
2021/12/18 01:24:31;;;;;;;9.25;4.25;;;7.20;99.90;;;;;;12443283;28;20584;-88
2021/12/18 01:30:34;;;;;;;11.52;4.40;;;7.30;99.90;;;;;;12433096;28;20129;-89
2021/12/18 01:36:37;;;;;;;10.80;4.35;;;7.20;99.90;;;;;;12425348;28;20041;-88
2021/12/18 01:43:40;;;;;;;12.27;4.70;;;7.20;99.90;;;;;;12432326;28;20042;-89
2021/12/18 01:55:33;;;;;;;16.17;5.47;;;7.20;99.90;;;;;;12443427;28;20103;-89
2021/12/18 02:01:34;;;;;;;12.73;4.82;;;7.20;99.90;;;;;;12430338;28;20086;-88
2021/12/18 02:07:37;;;;;;;18.15;5.90;;;7.20;99.90;;;;;;12428764;28;20058;-87
2021/12/18 02:14:06;;;;;;;18.27;5.30;;;7.20;99.90;;;;;;12445474;28;20647;-86
2021/12/18 02:20:38;;;;;;;20.48;5.50;;;7.20;99.90;;;;;;12425736;28;20383;-88
2021/12/18 02:26:40;;;;;;;13.63;4.55;;;7.20;99.90;;;;;;12355016;28;20061;-88
2021/12/18 02:32:42;;;;;;;9.43;4.13;;;7.20;99.90;;;;;;12345259;28;20454;-89
2021/12/18 02:44:52;;;;;;;8.50;3.67;;;7.10;99.90;;;;;;12338611;28;20050;-88
2021/12/18 02:50:58;;;;;;;10.35;3.80;;;7.20;99.90;;;;;;12336301;28;20045;-88
2021/12/18 02:57:00;;;;;;;8.90;3.58;;;7.10;99.90;;;;;;12349305;28;20141;-87
2021/12/18 03:03:08;;;;;;;10.57;3.67;;;7.10;99.90;;;;;;12345397;28;20154;-87
2021/12/18 03:09:34;;;;;;;9.25;3.60;;;7.10;99.90;;;;;;12347409;28;20085;-87
2021/12/18 03:28:15;;;;;;;11.85;3.80;;;7.00;99.90;;;;;;12408619;28;20049;-87
2021/12/18 03:34:17;;;;;;;9.90;3.85;;;6.90;99.90;;;;;;12425178;28;20164;-89
2021/12/18 03:40:21;;;;;;;12.65;4.50;;;6.90;99.90;;;;;;12420504;28;20045;-88
2021/12/18 03:46:23;;;;;;;11.85;3.88;;;6.90;99.90;;;;;;12421421;28;20053;-88
2021/12/18 03:52:25;;;;;;;8.93;3.63;;;6.90;99.90;;;;;;12440811;28;20049;-87
2021/12/18 03:58:27;;;;;;;10.48;2.83;;;6.90;99.90;;;;;;12446851;28;21170;-87
2021/12/18 04:04:29;;;;;;;8.27;2.63;;;6.90;99.90;;;;;;12428269;28;20050;-89
2021/12/18 04:10:32;;;;;;;7.70;2.38;;;6.90;99.90;;;;;;12424735;28;20418;-87
2021/12/18 04:16:35;;;;;;;10.38;2.58;;;6.80;99.90;;;;;;12429081;28;20547;-87
2021/12/18 04:22:37;;;;;;;9.50;2.30;;;6.80;99.90;;;;;;12427574;28;20684;-88
2021/12/18 04:28:39;;;;;;;9.07;2.60;;;6.70;99.90;;;;;;12435136;28;20056;-87
2021/12/18 04:34:41;;;;;;;9.52;2.70;;;6.70;99.90;;;;;;12434341;28;20053;-88
2021/12/18 04:40:44;;;;;;;5.90;2.60;;;6.70;99.90;;;;;;12427756;28;20053;-88
2021/12/18 04:46:46;;;;;;;11.02;3.35;;;6.70;99.90;;;;;;12429831;28;20179;-89
2021/12/18 04:52:48;;;;;;;17.23;3.67;;;6.70;99.90;;;;;;12427364;28;20060;-88
2021/12/18 04:58:50;;;;;;;20.52;4.15;;;6.80;99.90;;;;;;12426206;28;20103;-88
2021/12/18 05:04:52;;;;;;;9.15;3.50;;;6.80;99.90;;;;;;12429256;28;20073;-88
2021/12/18 05:10:54;;;;;;;23.20;3.95;;;6.70;99.90;;;;;;12430080;28;20640;-87
2021/12/18 05:16:56;;;;;;;7.75;2.65;;;6.70;99.90;;;;;;12433266;28;20128;-87
2021/12/18 05:22:58;;;;;;;11.95;3.15;;;6.60;99.90;;;;;;12425948;28;20118;-87
2021/12/18 05:29:00;;;;;;;11.98;2.90;;;6.50;99.90;;;;;;12440323;28;20520;-88
2021/12/18 05:35:04;;;;;;;19.80;9.50;;;6.50;99.90;;;;;;12443670;28;20441;-87
2021/12/18 05:41:05;;;;;;;8.17;3.37;;;6.40;99.90;;;;;;12425986;28;20162;-87
2021/12/18 05:47:08;;;;;;;12.05;5.50;;;6.40;99.90;;;;;;12435059;28;20053;-88
2021/12/18 05:53:10;;;;;;;9.80;3.20;;;6.50;99.90;;;;;;12423458;28;20133;-87
2021/12/18 05:59:12;;;;;;;7.15;2.72;;;6.30;99.90;;;;;;12424454;28;20083;-87
2021/12/18 06:05:14;;;;;;;5.80;2.13;;;6.40;99.90;;;;;;12442130;28;20060;-87
2021/12/18 06:11:20;;;;;;;6.97;2.75;;;6.30;99.90;;;;;;12437343;28;20107;-88
2021/12/18 06:17:22;;;;;;;;;;;6.20;99.90;;;;;;12421816;28;20045;-87
2021/12/18 06:23:24;;;;;;;6.82;2.60;;;6.20;99.90;;;;;;12418254;28;19925;-87
2021/12/18 06:29:26;;;;;;;6.63;2.15;;;6.20;99.90;;;;;;12426067;28;20140;-87
2021/12/18 06:35:28;;;;;;;5.88;2.70;;;6.20;99.90;;;;;;12428430;28;20049;-88
2021/12/18 06:41:30;;;;;;;6.10;2.15;;;6.20;99.90;;;;;;12426358;28;20088;-88
2021/12/18 06:47:32;;;;;;;5.72;1.65;;;6.20;99.90;;;;;;12431855;28;20052;-88
2021/12/18 06:53:34;;;;;;;4.45;1.55;;;6.10;99.90;;;;;;12431145;28;20046;-87
2021/12/18 06:59:36;;;;;;;4.85;1.95;;;6.00;99.90;;;;;;12434647;28;20061;-87
2021/12/18 07:05:38;;;;;;;5.68;2.55;;;5.90;99.90;;;;;;12428875;28;20081;-87
2021/12/18 07:11:40;;;;;;;5.13;2.00;;;5.90;99.90;;;;;;12426760;28;20109;-87
2021/12/18 07:17:42;;;;;;;8.23;2.03;;;5.80;99.90;;;;;;12428219;28;20049;-87
2021/12/18 07:23:44;;;;;;;6.78;1.73;;;5.80;99.90;;;;;;12405218;28;20065;-88
2021/12/18 07:29:46;;;;;;;5.65;2.10;;;5.80;99.90;;;;;;12419622;28;20053;-87
2021/12/18 07:35:49;;;;;;;7.25;2.72;;;5.80;99.90;;;;;;12425800;28;20111;-88
2021/12/18 07:41:51;;;;;;;15.73;6.88;;;5.80;99.90;;;;;;12432038;28;20103;-88
2021/12/18 07:47:53;;;;;;;8.90;3.13;;;5.90;99.90;;;;;;12425244;28;20050;-88
2021/12/18 07:53:56;;;;;;;6.97;2.90;;;5.90;99.90;;;;;;12426080;28;20136;-88
2021/12/18 07:59:58;;;;;;;5.57;2.53;;;5.80;99.90;;;;;;12424364;28;20137;-89
2021/12/18 08:06:00;;;;;;;8.55;2.42;;;5.90;99.90;;;;;;12425156;28;20049;-88
2021/12/18 08:12:02;;;;;;;5.65;2.10;;;5.80;99.90;;;;;;12431190;28;20452;-88
2021/12/18 08:18:06;;;;;;;6.90;3.22;;;5.80;99.90;;;;;;12433872;28;20050;-87
2021/12/18 08:24:08;;;;;;;7.40;3.13;;;5.80;99.90;;;;;;12427123;28;20564;-88
2021/12/18 08:30:10;;;;;;;8.10;3.95;;;5.90;99.90;;;;;;12424879;28;20378;-88
2021/12/18 08:36:12;;;;;;;5.40;3.35;;;5.90;99.90;;;;;;12431009;28;20154;-88
2021/12/18 08:42:15;;;;;;;9.57;3.88;;;6.00;99.90;;;;;;12427112;28;20050;-88
2021/12/18 08:48:17;;;;;;;7.07;3.28;;;6.00;99.90;;;;;;12432114;28;20824;-87
2021/12/18 08:54:18;;;;;;;9.40;3.53;;;6.00;99.90;;;;;;12446924;28;20061;-87
2021/12/18 09:00:40;;;;;;;10.65;5.30;;;6.20;99.90;;;;;;12445741;28;20371;-88
2021/12/18 09:06:42;;;;;;;10.70;4.20;;;6.10;99.90;;;;;;12436167;28;20069;-88
2021/12/18 09:12:44;;;;;;;13.52;4.10;;;6.10;99.90;;;;;;12440387;28;20197;-88
2021/12/18 09:18:46;;;;;;;8.18;3.65;;;6.10;99.90;;;;;;12436378;28;20535;-88
2021/12/18 09:24:48;;;;;;;6.10;3.13;;;6.10;99.90;;;;;;12447822;28;20148;-87
2021/12/18 09:30:50;;;;;;;9.23;3.67;;;6.00;99.90;;;;;;12448293;28;20050;-87
2021/12/18 09:36:52;;;;;;;5.85;2.80;;;6.10;99.90;;;;;;12435535;28;20053;-88
2021/12/18 09:42:54;;;;;;;7.47;3.33;;;6.00;99.90;;;;;;12437301;28;20137;-87
2021/12/18 09:48:56;;;;;;;6.05;3.20;;;6.00;99.90;;;;;;12430836;28;20102;-87
2021/12/18 09:54:58;;;;;;;7.70;3.05;;;6.10;99.90;;;;;;12442734;28;20069;-87
2021/12/18 10:01:00;;;;;;;8.88;3.67;;;6.20;99.90;;;;;;12431485;28;20052;-87
2021/12/18 10:07:28;;;;;;;7.05;3.28;;;6.20;99.90;;;;;;12433161;28;20145;-88
2021/12/18 10:13:50;;;;;;;8.27;3.13;;;6.10;99.90;;;;;;12441982;28;20116;-87
2021/12/18 10:20:13;;;;;;;10.20;2.90;;;6.10;99.90;;;;;;12429261;28;20485;-87
2021/12/18 10:26:48;;;;;;;10.45;3.08;;;6.10;99.90;;;;;;12430096;28;20098;-87
2021/12/18 10:32:57;;;;;;;9.07;2.80;;;6.20;99.90;;;;;;12413103;28;20103;-88
2021/12/18 10:38:59;;;;;;;6.32;2.80;;;6.10;99.90;;;;;;12434348;28;21407;-87
2021/12/18 10:45:13;;;;;;;8.25;2.63;;;6.30;99.90;;;;;;12429855;28;20041;-88
2021/12/18 10:51:22;;;;;;;5.97;2.58;;;6.20;99.90;;;;;;12426095;28;20099;-89
2021/12/18 10:57:24;;;;;;;6.95;3.20;;;6.30;99.90;;;;;;12428235;28;20045;-88
2021/12/18 11:03:56;;;;;;;6.50;2.95;;;6.40;99.90;;;;;;12428638;28;20759;-89
2021/12/18 11:16:59;;;;;;;5.82;3.08;;;6.40;99.90;;;;;;12413904;28;20037;-89
2021/12/18 11:23:01;;;;;;;6.75;3.60;;;6.40;99.90;;;;;;12396658;28;20079;-88
2021/12/18 11:29:04;;;;;;;8.60;3.60;;;6.40;99.90;;;;;;12473154;23;20056;-39
2021/12/18 11:35:14;;;;;;;7.57;3.03;;;6.40;99.90;;;;;;12527944;28;20053;-39
2021/12/18 11:41:18;;;;;;;5.18;2.92;;;6.50;99.90;;;;;;12527646;28;20056;-37
2021/12/18 11:47:39;;;;;;;6.47;3.27;;;6.50;99.90;;;;;;12525101;28;20421;-37
2021/12/18 11:53:43;;;;;;;6.63;4.43;;;6.50;99.90;;;;;;12527696;28;20466;-39
2021/12/18 11:59:45;;;;;;;6.32;2.75;;;6.40;99.90;;;;;;12530608;28;20787;-39
2021/12/18 12:05:50;;;;;;;7.18;3.88;;;6.40;99.90;;;;;;12526619;28;20049;-39
2021/12/18 12:12:09;;;;;;;6.50;3.40;;;6.40;99.90;;;;;;12529866;28;20052;-38
2021/12/18 12:18:11;;;;;;;6.10;2.60;;;6.30;99.90;;;;;;12538144;28;20067;-41
2021/12/18 12:24:16;;;;;;;4.30;2.22;;;6.30;99.90;;;;;;12538909;28;20061;-39
2021/12/18 12:30:32;;;;;;;5.22;2.20;;;6.40;99.90;;;;;;12533714;28;20183;-39
2021/12/18 12:36:34;;;;;;;3.78;2.20;;;6.40;99.90;;;;;;12531206;28;20164;-37
2021/12/18 12:42:38;;;;;;;4.30;2.42;;;6.40;99.90;;;;;;12535252;28;20064;-39
2021/12/18 12:49:00;;;;;;;4.72;2.45;;;6.40;99.90;;;;;;12534049;28;20171;-40
2021/12/18 12:55:05;;;;;;;3.25;2.03;;;6.40;99.90;;;;;;12533146;28;20080;-37
2021/12/18 13:01:08;;;;;;;;;;;6.50;99.90;;;;;;12533821;28;20621;-37
2021/12/18 13:07:10;;;;;;;3.53;2.20;;;6.60;99.90;;;;;;12536243;28;20363;-38
2021/12/18 13:13:16;;;;;;;3.15;1.88;;;6.60;99.90;;;;;;12530625;28;20152;-38
2021/12/18 13:19:18;;;;;;;4.13;1.73;;;6.60;99.90;;;;;;12539588;28;20048;-39
2021/12/18 13:25:20;;;;;;;3.47;1.90;;;6.60;99.90;;;;;;12541244;28;20060;-38
2021/12/18 13:31:26;;;;;;;3.28;1.98;;;6.60;99.90;;;;;;12537342;28;20653;-37
2021/12/18 13:37:29;;;;;;;4.45;2.58;;;6.60;99.90;;;;;;12531137;28;20052;-37
2021/12/18 13:43:31;;;;;;;4.45;2.40;;;6.60;99.90;;;;;;12533002;28;20048;-39
2021/12/18 13:49:33;;;;;;;3.72;2.40;;;6.70;99.90;;;;;;12534307;28;20476;-37
2021/12/18 13:55:46;;;;;;;4.25;2.72;;;6.60;99.90;;;;;;12529373;28;20137;-40
2021/12/18 14:01:49;;;;;;;4.18;2.80;;;6.60;99.90;;;;;;12533735;28;20049;-37
2021/12/18 14:07:52;;;;;;;3.60;2.33;;;6.60;99.90;;;;;;12533839;28;20106;-37
2021/12/18 14:14:06;;;;;;;4.22;2.70;;;6.60;99.90;;;;;;12531362;28;20041;-41
2021/12/18 14:20:11;;;;;;;4.30;2.53;;;6.60;99.90;;;;;;12530218;28;20053;-40
2021/12/18 14:26:25;;;;;;;4.57;2.92;;;6.60;99.90;;;;;;12532942;28;20075;-39
2021/12/18 14:32:30;;;;;;;5.30;3.42;;;6.60;99.90;;;;;;12531717;28;20049;-37
2021/12/18 14:38:35;;;;;;;5.75;3.58;;;6.60;99.90;;;;;;12530953;28;20052;-39
2021/12/18 14:44:46;;;;;;;6.20;3.60;;;6.70;99.90;;;;;;12528482;28;20052;-39
2021/12/18 14:50:49;;;;;;;5.57;4.00;;;6.60;99.90;;;;;;12512183;28;20470;-39
2021/12/18 14:56:51;;;;;;;7.50;4.95;;;6.60;99.90;;;;;;12529179;28;20419;-37
2021/12/18 15:03:00;;;;;;;6.35;4.75;;;6.60;99.90;;;;;;12524834;28;20044;-39
2021/12/18 15:09:13;;;;;;;6.10;4.88;;;6.60;99.90;;;;;;12526445;28;20472;-39
2021/12/18 15:15:15;;;;;;;7.85;5.63;;;6.60;99.90;;;;;;12525246;28;20172;-37
2021/12/18 15:21:18;;;;;;;9.60;5.60;;;6.70;99.90;;;;;;12506286;28;20051;-39
2021/12/18 15:27:21;;;;;;;9.45;6.15;;;6.60;99.90;;;;;;12521304;28;20699;-40
2021/12/18 15:33:23;;;;;;;8.57;6.10;;;6.60;99.90;;;;;;12525488;28;20124;-36
2021/12/18 15:39:26;;;;;;;8.88;5.85;;;6.70;99.90;;;;;;12513731;28;20496;-37
2021/12/18 15:45:28;;;;;;;10.18;6.80;;;6.70;99.90;;;;;;12528055;28;20398;-38
2021/12/18 15:51:30;;;;;;;10.55;6.97;;;6.70;99.90;;;;;;12537016;28;20871;-39
2021/12/18 15:57:32;;;;;;;10.82;7.20;;;6.70;99.90;;;;;;12541739;28;20140;-39
2021/12/18 16:03:35;;;;;;;12.07;7.78;;;6.70;99.90;;;;;;12536783;28;20045;-39
2021/12/18 16:09:41;;;;;;;13.05;8.90;;;6.80;99.90;;;;;;12525788;28;20070;-37
2021/12/18 16:15:43;;;;;;;14.05;8.77;;;6.70;99.90;;;;;;12539410;28;20447;-37
2021/12/18 16:21:45;;;;;;;14.90;8.63;;;6.70;99.90;;;;;;12531809;28;20094;-39
2021/12/18 16:27:47;;;;;;;12.13;8.60;;;6.80;99.90;;;;;;12539180;28;20087;-37
2021/12/18 16:33:49;;;;;;;16.10;9.48;;;6.80;99.90;;;;;;12532775;28;20136;-37
2021/12/18 16:39:51;;;;;;;13.88;9.35;;;6.70;99.90;;;;;;12542229;28;20077;-40
2021/12/18 16:45:53;;;;;;;16.88;9.80;;;6.70;99.90;;;;;;12539637;28;20041;-37
2021/12/18 16:51:55;;;;;;;20.80;10.60;;;6.70;99.90;;;;;;12543859;28;20070;-37
2021/12/18 16:57:57;;;;;;;17.63;10.82;;;6.70;99.90;;;;;;12538531;28;20536;-39
2021/12/18 17:04:09;;;;;;;19.60;11.38;;;6.70;99.90;;;;;;12538682;28;20064;-37
2021/12/18 17:10:12;;;;;;;20.35;12.93;;;6.70;99.90;;;;;;12540080;28;20052;-39
2021/12/18 17:16:14;;;;;;;23.50;13.68;;;6.70;99.90;;;;;;12536550;28;20109;-37
2021/12/18 17:22:15;;;;;;;20.80;13.30;;;6.70;99.90;;;;;;12540184;28;20045;-39
2021/12/18 17:28:17;;;;;;;24.13;12.82;;;6.80;99.90;;;;;;12538662;28;20655;-37
2021/12/18 17:34:20;;;;;;;25.67;13.52;;;6.80;99.90;;;;;;12538392;28;20037;-37
2021/12/18 17:40:24;;;;;;;20.60;13.30;;;6.80;99.90;;;;;;12532092;28;20056;-38
2021/12/18 17:46:26;;;;;;;30.08;14.60;;;6.80;99.90;;;;;;12535985;28;20217;-39
2021/12/18 17:52:28;;;;;;;27.65;15.10;;;6.80;99.90;;;;;;12540605;28;20086;-37
2021/12/18 17:58:30;;;;;;;30.63;14.82;;;6.80;99.90;;;;;;12539655;28;20139;-40
2021/12/18 18:04:32;;;;;;;25.30;15.38;;;6.80;99.90;;;;;;12537925;28;20048;-40
2021/12/18 18:10:42;;;;;;;30.48;15.98;;;6.80;99.90;;;;;;12538955;28;20576;-38
2021/12/18 18:16:44;;;;;;;34.58;16.58;;;6.80;99.90;;;;;;12538012;28;20052;-39
2021/12/18 18:22:46;;;;;;;28.92;13.75;;;6.80;99.90;;;;;;12537326;28;20386;-37
2021/12/18 18:28:49;;;;;;;27.33;14.85;;;6.80;99.90;;;;;;12537062;28;20067;-39
2021/12/18 18:34:57;;;;;;;26.10;14.68;;;6.90;99.90;;;;;;12533196;28;20056;-39
2021/12/18 18:41:08;;;;;;;32.50;15.48;;;6.90;99.90;;;;;;12538059;28;20044;-39
2021/12/18 18:47:18;;;;;;;32.83;15.32;;;6.90;99.90;;;;;;12535786;28;20048;-37
2021/12/18 18:53:21;;;;;;;30.30;13.55;;;6.90;99.90;;;;;;12534284;28;20493;-40
2021/12/18 18:59:23;;;;;;;26.45;14.95;;;6.90;99.90;;;;;;12537243;28;20094;-37
2021/12/18 19:05:26;;;;;;;28.50;16.00;;;6.90;99.90;;;;;;12535002;28;20633;-37
2021/12/18 19:11:32;;;;;;;33.58;15.90;;;6.90;99.90;;;;;;12533487;28;20041;-38
2021/12/18 19:17:39;;;;;;;32.10;17.17;;;7.00;99.90;;;;;;12537022;28;20420;-37
2021/12/18 19:23:42;;;;;;;31.03;15.70;;;7.00;99.90;;;;;;12533780;28;20078;-39
2021/12/18 19:29:45;;;;;;;35.55;16.50;;;7.00;99.90;;;;;;12534259;28;20106;-40
2021/12/18 19:35:47;;;;;;;33.38;15.15;;;6.90;99.90;;;;;;12530918;28;20139;-41
2021/12/18 19:41:49;;;;;;;30.33;15.48;;;6.90;99.90;;;;;;12532176;28;20147;-37
2021/12/18 19:47:51;;;;;;;26.90;14.18;;;7.00;99.90;;;;;;12532149;28;20251;-39
2021/12/18 19:53:53;;;;;;;30.65;12.80;;;6.90;99.90;;;;;;12531342;28;20048;-37
2021/12/18 19:59:55;;;;;;;29.40;13.10;;;6.90;99.90;;;;;;12533184;28;20068;-39
2021/12/18 20:06:01;;;;;;;25.13;12.88;;;6.90;99.90;;;;;;12530269;28;20049;-37
2021/12/18 20:12:03;;;;;;;24.05;11.05;;;6.90;99.90;;;;;;12535425;28;20055;-39
2021/12/18 20:18:06;;;;;;;24.92;10.75;;;6.90;99.90;;;;;;12537175;28;20041;-37
2021/12/18 20:24:09;;;;;;;24.73;10.48;;;6.90;99.90;;;;;;12532251;28;20068;-37
2021/12/18 20:30:12;;;;;;;20.92;10.70;;;6.90;99.90;;;;;;12530850;28;20061;-38
2021/12/18 20:36:14;;;;;;;22.50;10.55;;;6.90;99.90;;;;;;12540124;28;20135;-41
2021/12/18 20:42:17;;;;;;;21.58;10.90;;;6.90;99.90;;;;;;12538861;28;20492;-38
2021/12/18 20:48:19;;;;;;;23.02;11.68;;;6.90;99.90;;;;;;12538400;28;20048;-37
2021/12/18 20:54:21;;;;;;;22.70;11.57;;;6.90;99.90;;;;;;12539180;28;20142;-37
2021/12/18 21:00:32;;;;;;;24.17;12.93;;;6.90;99.90;;;;;;12538593;28;20049;-39
2021/12/18 21:06:35;;;;;;;30.50;13.23;;;6.90;99.90;;;;;;12538890;28;20060;-37
2021/12/18 21:12:38;;;;;;;24.88;13.38;;;6.90;99.90;;;;;;12539298;28;20135;-37
2021/12/18 21:18:46;;;;;;;22.23;13.32;;;6.90;99.90;;;;;;12542147;28;20045;-37
2021/12/18 21:24:48;;;;;;;24.30;13.30;;;6.90;99.90;;;;;;12541448;28;20402;-39
2021/12/18 21:30:52;;;;;;;25.23;14.15;;;6.90;99.90;;;;;;12537945;28;20178;-37
2021/12/18 21:36:54;;;;;;;25.10;13.60;;;6.90;99.90;;;;;;12536909;28;20045;-40
2021/12/18 21:43:07;;;;;;;30.27;14.68;;;6.90;99.90;;;;;;12537141;28;20912;-39
2021/12/18 21:49:09;;;;;;;25.60;13.80;;;6.80;99.90;;;;;;12541834;28;20083;-39
2021/12/18 21:55:12;;;;;;;23.42;13.27;;;6.90;99.90;;;;;;12536210;28;20135;-39
2021/12/18 22:01:14;;;;;;;22.77;12.70;;;6.90;99.90;;;;;;12536303;28;20144;-39
2021/12/18 22:07:16;;;;;;;19.55;11.73;;;6.90;99.90;;;;;;12536439;28;20090;-39
2021/12/18 22:13:18;;;;;;;15.73;8.45;;;6.80;99.90;;;;;;12535266;28;20072;-37
2021/12/18 22:19:21;;;;;;;18.75;9.48;;;6.90;99.90;;;;;;12538580;28;20591;-39
2021/12/18 22:25:23;;;;;;;17.17;8.48;;;6.90;99.90;;;;;;12535071;28;20717;-37
2021/12/18 22:31:26;;;;;;;15.13;7.28;;;6.90;99.90;;;;;;12530575;28;20044;-37
2021/12/18 22:37:28;;;;;;;13.07;7.03;;;6.80;99.90;;;;;;12531283;28;20048;-38
2021/12/18 22:43:31;;;;;;;11.77;6.30;;;6.80;99.90;;;;;;12526497;28;20460;-37
2021/12/18 22:49:33;;;;;;;10.10;5.88;;;6.80;99.90;;;;;;12514849;28;20075;-39
2021/12/18 22:55:37;;;;;;;7.97;5.10;;;6.80;99.90;;;;;;12533443;28;20057;-39
2021/12/18 23:01:40;;;;;;;11.03;5.50;;;6.80;99.90;;;;;;12535635;28;20044;-37
2021/12/18 23:07:42;;;;;;;8.32;4.95;;;6.90;99.90;;;;;;12530822;28;20049;-39
2021/12/18 23:20:08;;;;;;;9.57;4.97;;;6.80;99.90;;;;;;12529332;28;20144;-37
2021/12/18 23:26:10;;;;;;;7.38;4.75;;;6.80;99.90;;;;;;12533689;28;20048;-41
2021/12/18 23:32:32;;;;;;;8.95;5.05;;;6.80;99.90;;;;;;12474675;28;20094;-38
2021/12/18 23:38:34;;;;;;;5.80;4.40;;;6.70;99.90;;;;;;12485261;28;20394;-39
2021/12/18 23:50:58;;;;;;;6.45;4.35;;;6.80;99.90;;;;;;12486291;28;20132;-37
2021/12/18 23:57:00;;;;;;;7.32;3.92;;;6.70;99.90;;;;;;12483593;28;20054;-37
